createdAt,value
2023-02-01T01:06:07.277Z,99.90
2023-02-01T01:11:12.815Z,99.90
2023-02-01T01:13:41.233Z,99.90
2023-02-01T01:16:10.509Z,99.90
2023-02-01T01:23:36.307Z,99.90
2023-02-01T01:26:08.859Z,99.90
2023-02-01T01:36:00.816Z,99.90
2023-02-01T01:50:57.225Z,99.90
2023-02-01T01:53:31.550Z,99.90
2023-02-01T01:58:30.212Z,99.90
2023-02-01T02:03:35.244Z,99.90
2023-02-01T02:06:06.082Z,99.90
2023-02-01T02:11:02.126Z,99.90
2023-02-01T02:13:41.229Z,99.90
2023-02-01T02:16:43.758Z,99.90
2023-02-01T02:19:50.345Z,99.90
2023-02-01T02:22:20.906Z,99.90
2023-02-01T02:25:17.369Z,99.90
2023-02-01T02:27:53.934Z,99.90
2023-02-01T02:33:31.390Z,99.90
2023-02-01T02:36:20.149Z,99.90
2023-02-01T02:39:06.843Z,99.90
2023-02-01T02:42:08.349Z,99.90
2023-02-01T02:45:03.431Z,99.90
2023-02-01T02:47:53.773Z,99.90
2023-02-01T02:50:49.215Z,99.90
2023-02-01T02:53:41.242Z,99.90
2023-02-01T02:56:29.717Z,99.90
2023-02-01T02:59:17.826Z,99.90
2023-02-01T03:07:14.062Z,99.90
2023-02-01T03:09:46.622Z,99.90
2023-02-01T03:12:34.237Z,99.90
2023-02-01T03:15:09.676Z,99.90
2023-02-01T03:17:44.152Z,99.90
2023-02-01T03:28:01.342Z,99.90
2023-02-01T06:02:17.846Z,1.00
2023-02-01T07:08:58.860Z,1.00
2023-02-01T07:31:20.008Z,1.00
2023-02-01T08:18:40.196Z,1.00
2023-02-01T08:53:52.296Z,1.00
2023-02-01T08:56:20.501Z,1.00
2023-02-01T09:01:18.014Z,1.00
2023-02-01T09:41:44.698Z,1.00
2023-02-01T09:46:57.675Z,1.00
2023-02-01T09:59:54.883Z,1.00
2023-02-01T10:02:26.176Z,1.00
2023-02-01T10:07:56.428Z,1.00
2023-02-01T10:23:55.177Z,1.00
2023-02-01T10:26:31.675Z,1.00
2023-02-01T10:29:05.584Z,1.00
2023-02-01T10:31:39.036Z,1.00
2023-02-01T10:34:34.655Z,1.00
2023-02-01T10:37:28.209Z,1.00
2023-02-01T10:39:58.654Z,1.00
2023-02-01T10:42:29.208Z,1.00
2023-02-01T10:45:00.680Z,1.00
2023-02-01T10:47:28.174Z,1.00
2023-02-01T10:50:15.872Z,1.00
2023-02-01T10:52:49.352Z,1.00
2023-02-01T10:55:30.178Z,1.00
2023-02-01T10:58:03.639Z,1.00
2023-02-01T11:00:43.090Z,1.00
2023-02-01T11:03:40.362Z,1.00
2023-02-01T11:06:41.115Z,1.00
2023-02-01T11:09:24.893Z,1.00
2023-02-01T11:11:52.458Z,1.00
2023-02-01T11:14:33.226Z,1.00
2023-02-01T11:17:03.540Z,1.00
2023-02-01T11:19:31.528Z,1.00
2023-02-01T11:22:01.195Z,1.00
2023-02-01T11:24:34.079Z,1.00
2023-02-01T11:27:06.809Z,1.00
2023-02-01T11:29:41.256Z,1.00
2023-02-01T11:32:10.133Z,1.00
2023-02-01T11:34:49.012Z,1.00
2023-02-01T11:37:27.998Z,1.00
2023-02-01T11:40:01.672Z,1.00
2023-02-01T11:42:29.903Z,1.00
2023-02-01T11:45:21.303Z,1.00
2023-02-01T11:47:53.979Z,1.00
2023-02-01T11:50:33.464Z,1.00
2023-02-01T11:53:12.660Z,1.00
2023-02-01T11:55:53.687Z,1.00
2023-02-01T11:58:48.922Z,1.00
2023-02-01T12:01:28.169Z,1.00
2023-02-01T12:04:01.472Z,1.00
2023-02-01T12:06:52.381Z,1.00
2023-02-01T12:09:51.957Z,1.00
2023-02-01T12:12:31.834Z,1.00
2023-02-01T12:15:35.804Z,1.00
2023-02-01T12:18:27.275Z,1.00
2023-02-01T12:21:03.728Z,1.00
2023-02-01T12:23:43.205Z,1.00
2023-02-01T12:26:32.463Z,1.00
2023-02-01T12:29:28.131Z,1.00
2023-02-01T12:32:07.475Z,1.00
2023-02-01T12:34:55.341Z,1.00
2023-02-01T12:37:55.626Z,1.00
2023-02-01T12:40:50.733Z,1.00
2023-02-01T12:43:44.037Z,1.00
2023-02-01T12:46:29.116Z,1.00
2023-02-01T12:49:01.444Z,1.00
2023-02-01T12:51:35.287Z,1.00
2023-02-01T12:54:15.138Z,1.00
2023-02-01T12:56:52.664Z,1.00
2023-02-01T12:59:53.702Z,1.00
2023-02-01T13:02:26.794Z,1.00
2023-02-01T13:05:07.873Z,1.00
2023-02-01T13:07:44.657Z,1.00
2023-02-01T13:10:33.768Z,1.00
2023-02-01T13:13:23.521Z,1.00
2023-02-01T13:15:57.047Z,1.00
2023-02-01T13:18:29.814Z,1.00
2023-02-01T13:21:11.659Z,1.00
2023-02-01T13:23:41.752Z,1.00
2023-02-01T13:26:09.217Z,1.00
2023-02-01T13:28:54.180Z,1.00
2023-02-01T13:31:55.641Z,1.00
2023-02-01T13:34:48.189Z,1.00
2023-02-01T13:37:15.345Z,1.00
2023-02-01T13:40:22.847Z,1.00
2023-02-01T13:42:54.471Z,1.00
2023-02-01T13:45:26.400Z,1.00
2023-02-01T13:47:58.356Z,1.00
2023-02-01T13:50:35.108Z,1.00
2023-02-01T13:53:16.177Z,1.00
2023-02-01T13:55:53.556Z,1.00
2023-02-01T13:58:24.028Z,1.00
2023-02-01T14:00:52.405Z,1.00
2023-02-01T14:03:43.607Z,1.00
2023-02-01T14:06:44.844Z,1.00
2023-02-01T14:09:15.277Z,1.00
2023-02-01T14:11:49.217Z,1.00
2023-02-01T14:14:16.475Z,1.00
2023-02-01T14:16:45.616Z,1.00
2023-02-01T14:19:30.998Z,1.00
2023-02-01T14:22:25.251Z,1.00
2023-02-01T14:24:57.762Z,1.00
2023-02-01T14:27:31.035Z,1.00
2023-02-01T14:30:01.601Z,1.00
2023-02-01T14:32:37.670Z,1.00
2023-02-01T14:35:28.149Z,1.00
2023-02-01T14:38:03.769Z,1.00
2023-02-01T14:40:32.117Z,1.00
2023-02-01T14:42:59.914Z,1.00
2023-02-01T14:45:28.546Z,1.00
2023-02-01T14:48:08.726Z,1.00
2023-02-01T14:50:43.505Z,1.00
2023-02-01T14:53:14.316Z,1.00
2023-02-01T14:55:43.410Z,1.00
2023-02-01T14:58:45.390Z,1.00
2023-02-01T15:01:35.214Z,1.00
2023-02-01T15:04:14.604Z,1.00
2023-02-01T15:06:58.598Z,1.00
2023-02-01T15:09:35.910Z,1.00
2023-02-01T15:12:12.220Z,1.00
2023-02-01T15:14:43.594Z,1.00
2023-02-01T15:17:24.931Z,1.00
2023-02-01T15:19:57.474Z,1.00
2023-02-01T15:22:25.999Z,1.00
2023-02-01T15:25:01.558Z,1.00
2023-02-01T15:27:30.606Z,1.00
2023-02-01T15:30:22.683Z,1.00
2023-02-01T15:32:51.228Z,1.00
2023-02-01T15:35:44.677Z,1.00
2023-02-01T15:38:22.826Z,1.00
2023-02-01T15:41:20.592Z,1.00
2023-02-01T15:44:04.792Z,1.00
2023-02-01T15:46:43.558Z,1.00
2023-02-01T15:49:21.762Z,1.00
2023-02-01T15:51:49.815Z,1.00
2023-02-01T15:54:27.356Z,1.00
2023-02-01T15:56:56.858Z,1.00
2023-02-01T15:59:34.442Z,1.00
2023-02-01T16:02:02.036Z,1.00
2023-02-01T16:04:34.001Z,1.00
2023-02-01T16:07:05.484Z,1.00
2023-02-01T16:09:40.097Z,1.00
2023-02-01T16:12:28.850Z,1.00
2023-02-01T16:14:56.072Z,1.00
2023-02-01T16:17:23.634Z,1.00
2023-02-01T16:19:51.691Z,1.00
2023-02-01T16:22:19.536Z,1.00
2023-02-01T16:24:46.968Z,1.00
2023-02-01T16:27:14.774Z,1.00
2023-02-01T16:29:42.897Z,1.00
2023-02-01T16:32:28.812Z,1.00
2023-02-01T16:34:58.166Z,1.00
2023-02-01T16:37:28.543Z,1.00
2023-02-01T16:39:55.819Z,1.00
2023-02-01T16:42:23.324Z,1.00
2023-02-01T16:44:50.504Z,1.00
2023-02-01T16:47:24.080Z,1.00
2023-02-01T16:49:52.057Z,1.00
2023-02-01T16:52:24.953Z,1.00
2023-02-01T16:54:52.522Z,1.00
2023-02-01T16:57:25.054Z,1.00
2023-02-01T16:59:52.617Z,1.00
2023-02-01T17:02:22.377Z,1.00
2023-02-01T17:04:50.158Z,1.00
2023-02-01T17:07:20.050Z,1.00
2023-02-01T17:09:48.926Z,1.00
2023-02-01T17:12:27.873Z,1.00
2023-02-01T17:14:55.911Z,1.00
2023-02-01T17:17:39.001Z,1.00
2023-02-01T17:20:08.042Z,1.00
2023-02-01T17:22:36.353Z,1.00
2023-02-01T17:25:09.132Z,1.00
2023-02-01T17:27:39.020Z,1.00
2023-02-01T17:30:07.128Z,1.00
2023-02-01T17:32:35.179Z,1.00
2023-02-01T17:35:03.815Z,1.00
2023-02-01T17:37:38.014Z,1.00
2023-02-01T17:40:07.129Z,1.00
2023-02-01T17:42:38.973Z,1.00
2023-02-01T17:45:37.471Z,1.00
2023-02-01T17:48:07.665Z,1.00
2023-02-01T17:50:38.682Z,1.00
2023-02-01T17:53:10.138Z,1.00
2023-02-01T17:55:42.234Z,1.00
2023-02-01T17:58:15.097Z,1.00
2023-02-01T18:00:44.003Z,1.00
2023-02-01T18:03:24.517Z,1.00
2023-02-01T18:05:53.811Z,1.00
2023-02-01T18:08:23.490Z,1.00
2023-02-01T18:10:54.528Z,1.00
2023-02-01T18:13:22.846Z,1.00
2023-02-01T18:15:50.443Z,1.00
2023-02-01T18:18:18.063Z,1.00
2023-02-01T18:20:47.632Z,1.00
2023-02-01T18:23:21.167Z,1.00
2023-02-01T18:25:49.628Z,1.00
2023-02-01T18:28:18.307Z,1.00
2023-02-01T18:30:49.203Z,1.00
2023-02-01T18:33:19.284Z,1.00
2023-02-01T18:35:47.596Z,1.00
2023-02-01T18:38:16.169Z,1.00
2023-02-01T18:40:58.891Z,1.00
2023-02-01T18:43:27.955Z,1.00
2023-02-01T18:45:55.907Z,1.00
2023-02-01T18:48:24.423Z,1.00
2023-02-01T18:50:57.563Z,1.00
2023-02-01T18:53:27.687Z,1.00
2023-02-01T18:55:56.423Z,1.00
2023-02-01T18:58:27.850Z,1.00
2023-02-01T19:00:57.735Z,1.00
2023-02-01T19:03:27.067Z,1.00
2023-02-01T19:05:57.927Z,1.00
2023-02-01T19:08:26.154Z,1.00
2023-02-01T19:10:54.682Z,1.00
2023-02-01T19:13:24.686Z,1.00
2023-02-01T19:15:52.007Z,1.00
2023-02-01T19:18:20.555Z,1.00
2023-02-01T19:20:51.437Z,1.00
2023-02-01T19:23:19.486Z,1.00
2023-02-01T19:25:48.777Z,2.10
2023-02-01T19:28:16.822Z,13.90
2023-02-01T19:30:45.053Z,22.60
2023-02-01T19:33:13.001Z,31.60
2023-02-01T19:35:40.766Z,43.00
2023-02-01T19:38:09.701Z,64.30
2023-02-01T19:40:37.271Z,94.60
2023-02-01T19:43:04.976Z,99.90
2023-02-01T19:45:32.479Z,99.90
2023-02-01T19:48:03.319Z,99.90
2023-02-01T19:50:31.111Z,99.90
2023-02-01T19:52:59.077Z,99.90
2023-02-01T19:55:27.240Z,99.90
2023-02-01T19:57:55.488Z,99.90
2023-02-01T20:00:22.591Z,99.90
2023-02-01T20:02:50.835Z,99.90
2023-02-01T20:05:19.263Z,99.90
2023-02-01T20:07:46.938Z,99.90
2023-02-01T20:10:14.973Z,99.90
2023-02-01T20:12:44.661Z,99.90
2023-02-01T20:15:12.198Z,99.90
2023-02-01T20:17:40.004Z,99.90
2023-02-01T20:20:07.978Z,99.90
2023-02-01T20:22:35.619Z,99.90
2023-02-01T20:25:04.531Z,99.90
2023-02-01T20:27:34.136Z,99.90
2023-02-01T20:30:01.622Z,99.90
2023-02-01T20:32:29.359Z,99.90
2023-02-01T20:34:56.994Z,99.90
2023-02-01T20:37:24.951Z,99.90
2023-02-01T20:39:52.787Z,99.90
2023-02-01T20:42:20.817Z,99.90
2023-02-01T20:44:48.568Z,99.90
2023-02-01T20:47:16.725Z,99.90
2023-02-01T20:49:44.322Z,99.90
2023-02-01T20:52:13.289Z,99.90
2023-02-01T20:54:41.152Z,99.90
2023-02-01T20:57:09.555Z,99.90
2023-02-01T20:59:37.425Z,99.90
2023-02-01T21:02:05.528Z,99.90
2023-02-01T21:04:34.436Z,1.00
2023-02-01T21:07:03.467Z,1.00
2023-02-01T21:09:31.391Z,1.00
2023-02-01T21:11:59.515Z,99.90
2023-02-01T21:14:27.399Z,99.90
2023-02-01T21:16:55.010Z,99.90
2023-02-01T21:19:26.372Z,99.90
2023-02-01T21:21:54.682Z,99.90
2023-02-01T21:24:22.185Z,1.00
2023-02-01T21:26:49.928Z,1.00
2023-02-01T21:29:18.013Z,1.00
2023-02-01T21:31:45.835Z,99.90
2023-02-01T21:34:13.559Z,99.90
2023-02-01T21:36:41.726Z,99.90
2023-02-01T21:39:10.952Z,1.00
2023-02-01T21:41:57.102Z,99.90
2023-02-01T21:44:25.017Z,1.00
2023-02-01T21:46:53.007Z,1.00
2023-02-01T21:49:20.522Z,1.00
2023-02-01T21:51:48.352Z,1.00
2023-02-01T21:54:17.477Z,99.90
2023-02-01T21:56:45.768Z,99.90
2023-02-01T21:59:13.525Z,1.00
2023-02-01T22:01:41.600Z,1.00
2023-02-01T22:04:10.440Z,1.00
2023-02-01T22:06:46.992Z,1.00
2023-02-01T22:09:21.712Z,1.00
2023-02-01T22:11:51.438Z,1.00
2023-02-01T22:14:19.544Z,1.00
2023-02-01T22:16:47.783Z,1.00
2023-02-01T22:19:15.466Z,1.00
2023-02-01T22:21:46.197Z,99.90
2023-02-01T22:24:16.395Z,99.90
2023-02-01T22:26:48.100Z,1.00
2023-02-01T22:29:17.362Z,1.00
2023-02-01T22:31:45.826Z,1.00
2023-02-01T22:34:13.565Z,1.00
2023-02-01T22:36:41.544Z,99.90
2023-02-01T22:39:09.348Z,1.00
2023-02-01T22:41:37.939Z,1.00
2023-02-01T22:44:06.423Z,1.00
2023-02-01T22:46:34.637Z,99.90
2023-02-01T22:49:03.584Z,1.00
2023-02-01T22:51:32.859Z,99.90
2023-02-01T22:54:00.921Z,1.00
2023-02-01T22:56:36.818Z,1.00
2023-02-01T22:59:07.825Z,99.90
2023-02-01T23:01:35.990Z,99.90
2023-02-01T23:04:05.907Z,1.00
2023-02-01T23:06:34.899Z,99.90
2023-02-01T23:09:13.832Z,1.00
2023-02-01T23:11:42.389Z,1.00
2023-02-01T23:14:10.620Z,99.90
2023-02-01T23:16:39.455Z,99.90
2023-02-01T23:19:07.058Z,99.90
2023-02-01T23:21:34.985Z,99.90
2023-02-01T23:24:04.831Z,99.90
2023-02-01T23:26:32.569Z,99.90
2023-02-01T23:29:01.316Z,99.90
2023-02-01T23:31:31.216Z,99.90
2023-02-01T23:34:00.621Z,99.90
2023-02-01T23:36:29.828Z,99.90
2023-02-01T23:38:57.568Z,99.90
2023-02-01T23:41:27.566Z,99.90
2023-02-01T23:43:57.973Z,99.90
2023-02-01T23:46:41.744Z,99.90
2023-02-01T23:49:10.088Z,99.90
2023-02-01T23:51:37.723Z,99.90
2023-02-01T23:54:06.569Z,99.90
2023-02-01T23:56:40.296Z,99.90
2023-02-01T23:59:12.474Z,1.00
